Time;durP1;ratioP1;P1;durP2;ratioP2;P2;SDS_P1;SDS_P2;PMS_P1;PMS_P2;Temp;Humidity;BMP_temperature;BMP_pressure;BME280_temperature;BME280_humidity;BME280_pressure;Samples;Min_cycle;Max_cycle;Signal;HPM_P1;HPM_P2
2021/04/03 00:00:11;;;;;;;14.18;1.75;;;4.40;99.90;;;;;;5047610;28;20034;-70
2021/04/03 00:02:37;;;;;;;7.57;2.28;;;4.40;99.90;;;;;;5047618;28;20029;-71
2021/04/03 00:05:05;;;;;;;4.38;1.08;;;4.40;99.90;;;;;;5047369;28;20044;-70
2021/04/03 00:07:30;;;;;;;6.93;1.35;;;4.30;99.90;;;;;;5047581;28;20100;-72
2021/04/03 00:09:56;;;;;;;5.72;1.98;;;4.30;99.90;;;;;;5046989;28;20474;-70
2021/04/03 00:12:22;;;;;;;3.65;1.17;;;4.30;99.90;;;;;;5047623;28;20029;-72
2021/04/03 00:14:48;;;;;;;6.05;1.27;;;4.30;99.90;;;;;;5047362;28;20040;-71
2021/04/03 00:17:13;;;;;;;13.45;1.92;;;4.30;99.90;;;;;;5046905;28;20057;-72
2021/04/03 00:19:39;;;;;;;9.00;1.77;;;4.30;99.90;;;;;;5045909;28;20025;-71
2021/04/03 00:22:05;;;;;;;8.98;2.45;;;4.30;99.90;;;;;;5052416;28;20060;-70
2021/04/03 00:24:31;;;;;;;8.95;1.73;;;4.40;99.90;;;;;;5067185;28;20121;-71
2021/04/03 00:26:56;;;;;;;22.98;2.15;;;4.30;99.90;;;;;;5065496;28;20040;-71
2021/04/03 00:29:22;;;;;;;8.55;2.05;;;4.20;99.90;;;;;;5067456;28;20064;-71
2021/04/03 00:31:48;;;;;;;27.15;2.97;;;4.20;99.90;;;;;;5067287;28;20028;-73
2021/04/03 00:34:13;;;;;;;17.90;2.05;;;4.20;99.90;;;;;;5065489;28;20033;-70
2021/04/03 00:36:39;;;;;;;12.48;2.15;;;4.10;99.90;;;;;;5066899;28;20036;-69
2021/04/03 00:39:05;;;;;;;23.27;2.40;;;4.10;99.90;;;;;;5066414;28;20046;-73
2021/04/03 00:41:31;;;;;;;7.63;2.20;;;4.10;99.90;;;;;;5066106;28;20075;-72
2021/04/03 00:43:56;;;;;;;9.48;0.82;;;4.10;99.90;;;;;;5066042;28;20100;-71
2021/04/03 00:46:23;;;;;;;19.80;2.65;;;4.10;99.90;;;;;;5066311;28;20041;-72
2021/04/03 00:48:49;;;;;;;16.35;2.38;;;4.10;99.90;;;;;;5066914;28;20088;-73
2021/04/03 00:51:14;;;;;;;9.75;2.35;;;4.10;99.90;;;;;;5066725;28;20078;-72
2021/04/03 00:53:40;;;;;;;4.90;1.60;;;4.10;99.90;;;;;;5066663;28;20032;-72
2021/04/03 00:56:06;;;;;;;13.52;1.85;;;4.00;99.90;;;;;;5066551;28;20100;-72
2021/04/03 00:58:32;;;;;;;11.65;2.67;;;4.00;99.90;;;;;;5066546;28;20025;-74
2021/04/03 01:00:58;;;;;;;17.38;2.08;;;4.00;99.90;;;;;;5066599;28;20029;-72
2021/04/03 01:03:25;;;;;;;13.85;1.77;;;4.00;99.90;;;;;;5066697;28;20108;-72
2021/04/03 01:05:51;;;;;;;7.93;2.58;;;4.00;99.90;;;;;;5066749;28;20204;-72
2021/04/03 01:08:17;;;;;;;13.63;2.28;;;4.00;99.90;;;;;;5066265;28;20044;-72
2021/04/03 01:10:48;;;;;;;10.48;2.33;;;4.00;99.90;;;;;;5066295;28;20025;-71
2021/04/03 01:13:39;;;;;;;13.48;2.35;;;4.00;99.90;;;;;;5064844;28;20044;-71
2021/04/03 01:16:12;;;;;;;21.42;3.25;;;4.00;99.90;;;;;;5064697;28;20032;-71
2021/04/03 01:18:52;;;;;;;8.57;3.10;;;4.00;99.90;;;;;;5064564;28;20045;-72
2021/04/03 01:21:19;;;;;;;13.82;2.55;;;4.00;99.90;;;;;;5065757;28;20818;-73
2021/04/03 01:24:23;;;;;;;11.02;2.53;;;4.00;99.90;;;;;;5065434;28;20047;-75
2021/04/03 01:27:36;;;;;;;23.83;2.97;;;4.00;99.90;;;;;;5065515;28;20075;-72
2021/04/03 01:30:08;;;;;;;6.35;1.20;;;4.00;99.90;;;;;;5064242;28;20045;-72
2021/04/03 01:33:04;;;;;;;13.38;2.63;;;4.00;99.90;;;;;;5066096;28;20469;-69
2021/04/03 01:35:38;;;;;;;21.08;1.98;;;3.90;99.90;;;;;;5065496;28;20036;-71
2021/04/03 01:38:10;;;;;;;4.72;1.98;;;4.00;99.90;;;;;;5066023;28;20031;-70
2021/04/03 01:40:37;;;;;;;12.50;2.28;;;3.90;99.90;;;;;;5064272;28;20094;-71
2021/04/03 01:43:09;;;;;;;7.68;1.75;;;3.90;99.90;;;;;;5064538;28;20063;-72
2021/04/03 01:45:38;;;;;;;19.70;2.22;;;3.90;99.90;;;;;;5065558;28;20037;-72
2021/04/03 01:48:05;;;;;;;9.98;2.83;;;3.90;99.90;;;;;;5064401;28;20025;-71
2021/04/03 01:50:32;;;;;;;15.30;1.25;;;3.90;99.90;;;;;;5065592;28;20037;-72
2021/04/03 01:52:59;;;;;;;13.90;3.15;;;3.90;99.90;;;;;;5064452;28;20041;-72
2021/04/03 01:55:25;;;;;;;9.95;2.72;;;3.90;99.90;;;;;;5065204;28;20029;-72
2021/04/03 01:57:53;;;;;;;22.00;2.85;;;3.90;99.90;;;;;;5065658;28;20035;-72
2021/04/03 02:00:23;;;;;;;16.90;2.80;;;3.90;99.90;;;;;;5064250;28;20075;-72
2021/04/03 02:02:51;;;;;;;15.52;2.33;;;3.90;99.90;;;;;;5064140;28;20787;-72
2021/04/03 02:05:18;;;;;;;12.00;3.30;;;3.90;99.90;;;;;;5064113;28;20044;-73
2021/04/03 02:07:47;;;;;;;15.02;3.65;;;3.90;99.90;;;;;;5065391;28;20097;-71
2021/04/03 02:10:16;;;;;;;8.88;2.92;;;3.90;99.90;;;;;;5065110;28;20029;-71
2021/04/03 02:12:44;;;;;;;17.33;1.98;;;3.80;99.90;;;;;;5065163;28;20043;-71
2021/04/03 02:15:10;;;;;;;14.50;2.28;;;3.90;99.90;;;;;;5063862;28;20029;-72
2021/04/03 02:17:38;;;;;;;7.97;2.00;;;3.90;99.90;;;;;;5063364;28;20112;-72
2021/04/03 02:20:08;;;;;;;25.92;3.25;;;3.90;99.90;;;;;;5063730;28;20025;-73
2021/04/03 02:22:35;;;;;;;13.50;4.07;;;3.90;99.90;;;;;;5063772;28;20028;-72
2021/04/03 02:25:04;;;;;;;23.58;2.30;;;3.90;99.90;;;;;;5064693;28;20109;-69
2021/04/03 02:27:30;;;;;;;6.60;2.33;;;3.90;99.90;;;;;;5064756;28;20024;-72
2021/04/03 02:29:56;;;;;;;11.80;2.08;;;3.80;99.90;;;;;;5065089;28;20029;-72
2021/04/03 02:32:22;;;;;;;16.92;1.42;;;3.80;99.90;;;;;;5063721;28;20036;-72
2021/04/03 02:34:48;;;;;;;17.02;2.63;;;3.80;99.90;;;;;;5064772;28;20036;-72
2021/04/03 02:37:14;;;;;;;10.95;2.05;;;3.80;99.90;;;;;;5065012;28;20405;-72
2021/04/03 02:39:43;;;;;;;21.38;2.95;;;3.80;99.90;;;;;;5064961;28;20032;-71
2021/04/03 02:42:20;;;;;;;18.38;3.30;;;3.80;99.90;;;;;;5063451;28;20495;-72
2021/04/03 02:44:52;;;;;;;9.40;1.83;;;3.80;99.90;;;;;;5064660;28;20076;-72
2021/04/03 02:47:23;;;;;;;37.30;4.97;;;3.80;99.90;;;;;;5064821;28;20107;-72
2021/04/03 02:49:58;;;;;;;10.82;2.63;;;3.80;99.90;;;;;;5064946;28;20047;-71
2021/04/03 02:52:26;;;;;;;19.65;3.78;;;3.80;99.90;;;;;;5063469;28;20021;-69
2021/04/03 02:54:54;;;;;;;16.15;2.47;;;3.80;99.90;;;;;;5064643;28;20021;-72
2021/04/03 02:57:21;;;;;;;25.83;2.97;;;3.80;99.90;;;;;;5064796;28;20029;-71
2021/04/03 02:59:54;;;;;;;28.55;3.83;;;3.80;99.90;;;;;;5064506;28;20059;-72
2021/04/03 03:02:23;;;;;;;9.48;2.00;;;3.80;99.90;;;;;;5064758;28;20037;-72
2021/04/03 03:04:49;;;;;;;9.52;2.45;;;3.80;99.90;;;;;;5064695;28;20055;-70
2021/04/03 03:07:17;;;;;;;8.48;2.83;;;3.70;99.90;;;;;;5063139;28;20399;-73
2021/04/03 03:09:43;;;;;;;26.35;4.25;;;3.80;99.90;;;;;;5068378;28;20040;-71
2021/04/03 03:12:13;;;;;;;12.30;3.55;;;3.70;99.90;;;;;;5068504;28;20097;-71
2021/04/03 03:14:40;;;;;;;9.07;2.65;;;3.70;99.90;;;;;;5068499;28;20025;-69
2021/04/03 03:17:09;;;;;;;18.48;2.95;;;3.70;99.90;;;;;;5068169;28;20032;-72
2021/04/03 03:19:36;;;;;;;14.65;3.53;;;3.70;99.90;;;;;;5068591;28;20017;-72
2021/04/03 03:22:02;;;;;;;10.52;2.72;;;3.70;99.90;;;;;;5068351;28;20036;-71
2021/04/03 03:24:28;;;;;;;29.40;4.88;;;3.70;99.90;;;;;;5068347;28;20025;-72
2021/04/03 03:26:54;;;;;;;13.60;3.05;;;3.70;99.90;;;;;;5068302;28;20021;-72
2021/04/03 03:29:22;;;;;;;11.48;1.85;;;3.70;99.90;;;;;;5068579;28;20040;-72
2021/04/03 03:31:48;;;;;;;11.50;2.83;;;3.60;99.90;;;;;;5068385;28;20029;-72
2021/04/03 03:34:13;;;;;;;8.25;2.28;;;3.60;99.90;;;;;;5066813;28;20119;-71
2021/04/03 03:36:40;;;;;;;21.75;3.55;;;3.60;99.90;;;;;;5068356;28;20061;-71
2021/04/03 03:39:06;;;;;;;13.68;3.97;;;3.60;99.90;;;;;;5068024;28;20021;-71
2021/04/03 03:41:36;;;;;;;9.48;2.47;;;3.60;99.90;;;;;;5068081;28;20021;-70
2021/04/03 03:44:04;;;;;;;23.65;3.78;;;3.60;99.90;;;;;;5068135;28;20075;-72
2021/04/03 03:46:30;;;;;;;21.65;3.88;;;3.60;99.90;;;;;;5067936;28;20478;-72
2021/04/03 03:48:56;;;;;;;11.25;4.03;;;3.60;99.90;;;;;;5067720;28;20036;-70
2021/04/03 03:51:21;;;;;;;18.00;3.53;;;3.50;99.90;;;;;;5066738;28;20025;-71
2021/04/03 03:53:47;;;;;;;15.70;3.40;;;3.50;99.90;;;;;;5067582;28;20054;-72
2021/04/03 03:56:14;;;;;;;6.78;2.38;;;3.50;99.90;;;;;;5067891;28;20444;-71
2021/04/03 03:58:41;;;;;;;8.70;3.42;;;3.50;99.90;;;;;;5067687;28;20025;-70
2021/04/03 04:01:07;;;;;;;12.88;3.03;;;3.50;99.90;;;;;;5067773;28;20098;-71
2021/04/03 04:03:33;;;;;;;6.68;2.97;;;3.50;99.90;;;;;;5067551;28;20021;-71
2021/04/03 04:05:59;;;;;;;8.65;2.30;;;3.50;99.90;;;;;;5067546;28;20088;-70
2021/04/03 04:08:25;;;;;;;18.80;3.00;;;3.50;99.90;;;;;;5066389;28;20052;-72
2021/04/03 04:10:52;;;;;;;18.13;2.65;;;3.50;99.90;;;;;;5067436;28;20027;-72
2021/04/03 04:13:17;;;;;;;8.32;2.30;;;3.60;99.90;;;;;;5067534;28;20021;-71
2021/04/03 04:15:43;;;;;;;19.48;2.38;;;3.50;99.90;;;;;;5065633;28;20028;-71
2021/04/03 04:18:08;;;;;;;17.23;3.65;;;3.50;99.90;;;;;;5066909;28;20049;-71
2021/04/03 04:20:34;;;;;;;10.52;3.30;;;3.40;99.90;;;;;;5065848;28;20486;-71
2021/04/03 04:23:00;;;;;;;10.55;3.58;;;3.40;99.90;;;;;;5065962;28;20067;-71
2021/04/03 04:25:27;;;;;;;21.95;3.33;;;3.50;99.90;;;;;;5067259;28;20044;-72
2021/04/03 04:27:53;;;;;;;17.45;3.85;;;3.40;99.90;;;;;;5066056;28;20031;-72
2021/04/03 04:30:19;;;;;;;10.07;3.50;;;3.40;99.90;;;;;;5067216;28;20029;-71
2021/04/03 04:32:45;;;;;;;11.95;3.60;;;3.40;99.90;;;;;;5067031;28;20017;-69
2021/04/03 04:35:12;;;;;;;12.50;3.63;;;3.40;99.90;;;;;;5066959;28;20029;-70
2021/04/03 04:37:39;;;;;;;16.70;3.60;;;3.40;99.90;;;;;;5067083;28;20041;-71
2021/04/03 04:40:06;;;;;;;7.78;3.08;;;3.40;99.90;;;;;;5066736;28;20075;-70
2021/04/03 04:42:32;;;;;;;18.15;3.70;;;3.40;99.90;;;;;;5065389;28;20029;-72
2021/04/03 04:44:58;;;;;;;21.35;4.13;;;3.40;99.90;;;;;;5066984;28;20089;-70
2021/04/03 04:47:23;;;;;;;11.45;3.03;;;3.40;99.90;;;;;;5067021;28;20089;-70
2021/04/03 04:49:50;;;;;;;15.60;3.50;;;3.40;99.90;;;;;;5065668;28;20108;-71
2021/04/03 04:52:16;;;;;;;15.93;3.17;;;3.40;99.90;;;;;;5065472;28;20104;-72
2021/04/03 04:54:42;;;;;;;12.30;3.88;;;3.40;99.90;;;;;;5066617;28;20033;-70
2021/04/03 04:57:08;;;;;;;9.18;2.80;;;3.40;99.90;;;;;;5066504;28;20108;-70
2021/04/03 04:59:33;;;;;;;23.05;4.22;;;3.40;99.90;;;;;;5065391;28;20078;-71
2021/04/03 05:01:59;;;;;;;11.18;3.00;;;3.40;99.90;;;;;;5066420;28;20032;-72
2021/04/03 05:04:26;;;;;;;12.52;2.70;;;3.40;99.90;;;;;;5066433;28;20044;-72
2021/04/03 05:06:52;;;;;;;11.65;3.38;;;3.40;99.90;;;;;;5065265;28;20128;-71
2021/04/03 05:09:18;;;;;;;14.70;2.70;;;3.40;99.90;;;;;;5065190;28;20062;-72
2021/04/03 05:11:43;;;;;;;11.45;2.25;;;3.40;99.90;;;;;;5064313;28;20025;-71
2021/04/03 05:14:09;;;;;;;12.45;3.72;;;3.40;99.90;;;;;;5065083;28;20029;-71
2021/04/03 05:16:35;;;;;;;10.25;2.60;;;3.40;99.90;;;;;;5066065;28;20047;-72
2021/04/03 05:19:01;;;;;;;6.63;2.20;;;3.40;99.90;;;;;;5064771;28;20136;-70
2021/04/03 05:21:27;;;;;;;16.08;3.38;;;3.40;99.90;;;;;;5066216;28;20030;-70
2021/04/03 05:23:53;;;;;;;5.10;2.22;;;3.30;99.90;;;;;;5064790;28;20367;-71
2021/04/03 05:26:18;;;;;;;12.27;3.33;;;3.40;99.90;;;;;;5064614;28;20059;-69
2021/04/03 05:28:44;;;;;;;9.10;3.15;;;3.40;99.90;;;;;;5066117;28;20081;-69
2021/04/03 05:31:13;;;;;;;10.27;2.85;;;3.40;99.90;;;;;;5065205;28;20033;-70
2021/04/03 05:33:39;;;;;;;14.02;3.45;;;3.40;99.90;;;;;;5065944;28;20036;-70
2021/04/03 05:36:04;;;;;;;12.48;3.00;;;3.40;99.90;;;;;;5066034;28;20037;-73
2021/04/03 05:38:30;;;;;;;7.15;2.67;;;3.40;99.90;;;;;;5065749;28;20027;-72
2021/04/03 05:40:56;;;;;;;11.93;3.10;;;3.50;99.90;;;;;;5065815;28;20021;-71
2021/04/03 05:43:23;;;;;;;9.00;2.22;;;3.50;99.90;;;;;;5065888;28;20029;-71
2021/04/03 05:45:56;;;;;;;7.50;2.80;;;3.60;99.90;;;;;;5064307;28;20029;-70
2021/04/03 05:48:24;;;;;;;21.85;2.90;;;3.60;99.90;;;;;;5065924;28;20025;-72
2021/04/03 05:50:55;;;;;;;13.02;3.17;;;3.60;99.90;;;;;;5065692;28;20412;-70
2021/04/03 05:53:23;;;;;;;6.53;2.67;;;3.70;99.90;;;;;;5062749;28;20024;-70
2021/04/03 05:55:56;;;;;;;22.52;2.97;;;3.70;99.90;;;;;;5050581;28;20060;-69
2021/04/03 05:58:24;;;;;;;7.53;2.75;;;3.70;99.90;;;;;;5054418;28;20084;-72
2021/04/03 06:00:53;;;;;;;14.80;2.15;;;3.80;99.90;;;;;;5045236;28;20029;-71
2021/04/03 06:03:19;;;;;;;8.85;2.97;;;3.90;99.90;;;;;;5045120;28;20017;-72
2021/04/03 06:05:47;;;;;;;9.52;3.28;;;4.00;99.90;;;;;;5044769;28;20039;-71
2021/04/03 06:08:13;;;;;;;15.27;3.55;;;4.00;99.90;;;;;;5044929;28;20061;-72
2021/04/03 06:10:39;;;;;;;8.02;2.20;;;4.10;99.90;;;;;;5043939;28;20025;-72
2021/04/03 06:13:17;;;;;;;9.50;2.72;;;4.10;99.90;;;;;;5044461;28;20032;-72
2021/04/03 06:15:42;;;;;;;5.20;2.22;;;4.20;99.90;;;;;;5044525;28;20032;-71
2021/04/03 06:18:11;;;;;;;7.30;2.38;;;4.20;99.90;;;;;;5044387;28;20049;-71
2021/04/03 06:20:39;;;;;;;5.78;2.42;;;4.30;99.90;;;;;;5044623;28;20025;-71
2021/04/03 06:23:09;;;;;;;10.35;2.80;;;4.30;99.90;;;;;;5043724;28;20056;-72
2021/04/03 06:25:57;;;;;;;3.75;1.65;;;4.40;99.90;;;;;;5044258;28;20063;-71
2021/04/03 06:28:30;;;;;;;10.00;2.10;;;4.50;99.90;;;;;;5044759;28;20384;-72
2021/04/03 06:31:16;;;;;;;7.43;1.90;;;4.60;99.90;;;;;;5044464;28;20083;-72
2021/04/03 06:33:43;;;;;;;10.57;1.85;;;4.70;99.90;;;;;;5044250;28;20033;-72
2021/04/03 06:36:13;;;;;;;4.10;2.58;;;4.70;99.90;;;;;;5042763;28;20036;-72
2021/04/03 06:38:41;;;;;;;14.85;2.55;;;4.80;99.90;;;;;;5042902;28;20038;-72
2021/04/03 06:41:19;;;;;;;6.60;2.30;;;4.80;99.90;;;;;;5044451;28;20399;-72
2021/04/03 06:44:11;;;;;;;15.52;3.20;;;4.90;99.90;;;;;;5044293;28;20029;-72
2021/04/03 06:46:41;;;;;;;5.95;1.80;;;4.90;99.90;;;;;;5044288;28;20041;-72
2021/04/03 06:49:07;;;;;;;10.18;1.98;;;4.90;99.90;;;;;;5042432;28;20028;-72
2021/04/03 06:51:34;;;;;;;10.48;2.03;;;5.00;99.90;;;;;;5044286;28;20108;-72
2021/04/03 06:54:01;;;;;;;6.28;1.77;;;5.10;99.90;;;;;;5044017;28;20105;-72
2021/04/03 06:56:34;;;;;;;19.63;2.47;;;5.20;99.90;;;;;;5044221;28;20026;-72
2021/04/03 06:59:12;;;;;;;4.18;1.77;;;5.30;99.90;;;;;;5042218;28;20030;-70
2021/04/03 07:01:57;;;;;;;12.13;2.22;;;5.40;99.90;;;;;;5043587;28;20488;-72
2021/04/03 07:04:29;;;;;;;13.20;2.20;;;5.50;99.90;;;;;;5043881;28;20025;-71
2021/04/03 07:06:56;;;;;;;5.60;1.55;;;5.60;99.90;;;;;;5043550;28;20038;-72
2021/04/03 07:09:24;;;;;;;5.40;1.88;;;5.70;99.90;;;;;;5044427;28;20021;-73
2021/04/03 07:11:55;;;;;;;3.58;1.40;;;5.80;99.90;;;;;;5055039;28;20060;-73
2021/04/03 07:14:22;;;;;;;14.13;1.65;;;5.90;99.90;;;;;;5044629;28;20033;-73
2021/04/03 07:16:50;;;;;;;15.23;2.45;;;6.10;99.90;;;;;;5044362;28;20031;-72
2021/04/03 07:19:18;;;;;;;6.15;2.15;;;6.30;99.90;;;;;;5064338;28;20021;-72
2021/04/03 07:21:44;;;;;;;4.63;1.90;;;6.30;99.90;;;;;;5064128;28;20093;-72
2021/04/03 07:24:16;;;;;;;4.90;1.38;;;6.40;99.90;;;;;;5064271;28;20025;-73
2021/04/03 07:26:45;;;;;;;4.85;1.60;;;6.50;99.90;;;;;;5063950;28;20112;-71
2021/04/03 07:29:50;;;;;;;11.13;1.30;;;6.60;99.90;;;;;;5064061;28;20025;-73
2021/04/03 07:32:27;;;;;;;;;;;6.80;99.90;;;;;;5064527;28;20025;-71
2021/04/03 07:34:54;;;;;;;3.15;1.05;;;6.90;99.90;;;;;;5063645;28;19904;-73
2021/04/03 07:37:34;;;;;;;3.47;1.63;;;7.10;99.90;;;;;;5064407;28;20037;-72
2021/04/03 07:40:01;;;;;;;4.88;1.30;;;7.20;99.90;;;;;;5064036;28;20092;-73
2021/04/03 07:42:38;;;;;;;4.68;0.90;;;7.30;99.90;;;;;;5064067;28;20025;-72
2021/04/03 07:45:25;;;;;;;4.10;1.27;;;7.50;99.90;;;;;;5063909;28;20033;-72
2021/04/03 07:47:51;;;;;;;6.72;1.65;;;7.60;99.90;;;;;;5061641;28;20068;-73
2021/04/03 07:50:42;;;;;;;2.63;1.00;;;7.70;99.90;;;;;;5063649;28;20021;-73
2021/04/03 07:53:09;;;;;;;2.63;1.45;;;7.90;99.90;;;;;;5062575;28;20048;-72
2021/04/03 07:55:37;;;;;;;10.25;2.08;;;8.00;99.90;;;;;;5054489;28;20121;-74
2021/04/03 07:58:24;;;;;;;3.03;1.40;;;8.10;99.90;;;;;;5047700;28;20458;-73
2021/04/03 08:00:52;;;;;;;4.07;2.17;;;8.10;99.90;;;;;;5047661;28;20405;-72
2021/04/03 08:03:22;;;;;;;13.10;1.65;;;8.20;99.90;;;;;;5047095;28;20066;-72
2021/04/03 08:05:50;;;;;;;6.68;1.90;;;8.30;99.90;;;;;;5047567;28;20041;-71
2021/04/03 08:08:19;;;;;;;6.47;1.75;;;8.40;99.90;;;;;;5047159;28;20049;-73
2021/04/03 08:10:46;;;;;;;5.68;1.48;;;8.50;99.90;;;;;;5045957;28;20029;-73
2021/04/03 08:13:12;;;;;;;2.65;1.40;;;8.70;99.90;;;;;;5047458;28;20026;-73
2021/04/03 08:15:41;;;;;;;2.67;1.33;;;8.90;99.90;;;;;;5047466;28;20049;-72
2021/04/03 08:18:11;;;;;;;4.20;1.17;;;9.00;99.90;;;;;;5047572;28;20076;-73
2021/04/03 08:20:37;;;;;;;4.05;1.40;;;9.20;99.90;;;;;;5046491;28;20409;-73
2021/04/03 08:23:05;;;;;;;4.13;1.42;;;9.40;99.90;;;;;;5050352;28;20024;-72
2021/04/03 08:25:31;;;;;;;7.80;1.65;;;9.60;99.90;;;;;;5052544;28;20092;-74
2021/04/03 08:27:57;;;;;;;2.75;0.77;;;9.80;99.90;;;;;;5065735;28;20025;-75
2021/04/03 08:30:33;;;;;;;2.83;1.15;;;10.00;99.90;;;;;;5055537;28;20040;-74
2021/04/03 08:33:05;;;;;;;4.22;1.30;;;10.10;99.90;;;;;;5047400;28;20040;-73
2021/04/03 08:35:31;;;;;;;4.53;1.25;;;10.40;99.90;;;;;;5047021;28;20026;-74
2021/04/03 08:38:18;;;;;;;1.08;0.80;;;10.50;99.90;;;;;;5058463;28;20038;-73
2021/04/03 08:40:44;;;;;;;1.02;0.77;;;10.70;99.90;;;;;;5044884;28;20029;-73
2021/04/03 08:43:21;;;;;;;1.60;0.80;;;10.80;99.90;;;;;;5046275;28;20104;-74
2021/04/03 08:45:48;;;;;;;3.78;0.77;;;10.80;99.90;;;;;;5046807;28;20037;-73
2021/04/03 08:48:14;;;;;;;1.95;1.15;;;10.90;99.90;;;;;;5045009;28;20028;-75
2021/04/03 08:50:42;;;;;;;1.85;0.75;;;11.10;99.90;;;;;;5046801;28;20421;-74
2021/04/03 08:53:08;;;;;;;1.45;0.65;;;11.20;99.90;;;;;;5047236;28;20097;-73
2021/04/03 08:55:34;;;;;;;1.55;0.80;;;11.40;99.90;;;;;;5045596;28;20026;-74
2021/04/03 08:58:01;;;;;;;3.75;1.15;;;11.50;99.90;;;;;;5046920;28;20064;-73
2021/04/03 09:00:30;;;;;;;1.83;0.90;;;11.60;99.90;;;;;;5050096;28;20026;-75
2021/04/03 09:02:57;;;;;;;3.92;1.02;;;11.80;99.90;;;;;;5044424;28;20043;-74
2021/04/03 09:05:24;;;;;;;1.70;1.00;;;11.80;99.90;;;;;;5060432;28;20063;-74
2021/04/03 09:07:50;;;;;;;8.35;1.85;;;11.70;99.90;;;;;;5046207;28;20441;-73
2021/04/03 09:10:24;;;;;;;3.03;1.02;;;11.90;99.90;;;;;;5055509;28;20033;-71
2021/04/03 09:12:50;;;;;;;1.20;0.80;;;12.10;99.90;;;;;;5062266;28;20017;-72
2021/04/03 09:15:28;;;;;;;1.65;0.75;;;12.10;99.90;;;;;;5066261;28;20052;-73
2021/04/03 09:17:56;;;;;;;0.57;0.43;;;12.20;99.90;;;;;;5047313;28;20057;-74
2021/04/03 09:20:28;;;;;;;1.85;0.82;;;12.40;99.90;;;;;;5050457;28;20021;-75
2021/04/03 09:23:04;;;;;;;3.25;0.98;;;12.50;99.90;;;;;;5065440;28;20021;-77
2021/04/03 09:25:30;;;;;;;1.90;0.88;;;12.70;99.90;;;;;;5065867;28;20037;-74
2021/04/03 09:28:01;;;;;;;3.22;1.23;;;12.70;99.90;;;;;;5054563;28;20060;-74
2021/04/03 09:30:34;;;;;;;1.00;0.75;;;12.80;99.90;;;;;;5040000;28;20026;-74
2021/04/03 09:33:16;;;;;;;6.18;1.40;;;12.90;99.90;;;;;;5025168;28;20033;-72
2021/04/03 09:35:41;;;;;;;1.75;0.85;;;12.90;99.90;;;;;;5025760;28;20026;-74
2021/04/03 09:38:07;;;;;;;3.05;1.35;;;13.10;99.90;;;;;;5042141;28;20077;-74
2021/04/03 09:40:42;;;;;;;2.42;0.88;;;13.30;99.90;;;;;;5054326;28;20021;-74
2021/04/03 09:43:09;;;;;;;4.13;0.55;;;13.30;99.90;;;;;;5049491;28;20536;-74
2021/04/03 09:45:37;;;;;;;12.85;1.13;;;13.30;99.90;;;;;;5064749;28;20036;-74
2021/04/03 09:48:08;;;;;;;3.78;1.10;;;13.50;99.90;;;;;;5064996;28;20028;-74
2021/04/03 09:50:34;;;;;;;3.03;1.00;;;13.50;99.90;;;;;;5055020;28;20241;-73
2021/04/03 09:53:13;;;;;;;3.63;0.93;;;13.70;99.90;;;;;;5049795;28;20029;-74
2021/04/03 09:55:39;;;;;;;0.85;0.55;;;13.70;99.90;;;;;;5045888;28;20034;-74
2021/04/03 09:58:05;;;;;;;0.52;0.32;;;13.90;99.90;;;;;;5045509;28;20037;-73
2021/04/03 10:00:32;;;;;;;0.47;0.35;;;14.00;99.90;;;;;;5044707;28;20022;-72
2021/04/03 10:03:00;;;;;;;3.80;0.50;;;13.80;99.90;;;;;;5048569;28;20044;-76
2021/04/03 10:05:26;;;;;;;0.85;0.40;;;13.70;99.90;;;;;;5064302;28;20037;-75
2021/04/03 10:07:54;;;;;;;0.52;0.40;;;13.70;99.90;;;;;;5065189;28;20040;-73
2021/04/03 10:10:20;;;;;;;2.47;0.32;;;13.90;99.90;;;;;;5065354;28;20390;-74
2021/04/03 10:12:46;;;;;;;0.60;0.22;;;14.20;99.90;;;;;;5063844;28;20052;-72
2021/04/03 10:15:12;;;;;;;2.28;0.68;;;14.50;99.90;;;;;;5063464;28;20064;-75
2021/04/03 10:17:37;;;;;;;1.95;0.50;;;14.60;99.90;;;;;;5044060;28;20054;-74
2021/04/03 10:20:05;;;;;;;2.20;1.08;;;14.80;99.90;;;;;;5045243;28;20117;-75
2021/04/03 10:22:31;;;;;;;0.52;0.32;;;15.00;99.30;;;;;;5043768;28;20436;-69
2021/04/03 10:24:57;;;;;;;0.55;0.25;;;15.10;97.10;;;;;;5047950;28;20096;-74
2021/04/03 10:27:26;;;;;;;0.30;0.20;;;15.00;99.90;;;;;;5044889;28;20036;-74
2021/04/03 10:29:53;;;;;;;4.97;0.93;;;15.00;97.70;;;;;;5045201;28;20053;-75
2021/04/03 10:32:20;;;;;;;0.20;0.20;;;14.90;95.00;;;;;;5044981;28;20037;-73
2021/04/03 10:34:45;;;;;;;0.68;0.38;;;15.10;98.60;;;;;;5044757;28;20030;-73
2021/04/03 10:37:11;;;;;;;0.60;0.40;;;15.20;97.80;;;;;;5044793;28;20213;-74
2021/04/03 10:39:37;;;;;;;3.60;0.85;;;15.50;99.90;;;;;;5044457;28;20030;-73
2021/04/03 10:42:03;;;;;;;3.45;1.05;;;15.80;99.40;;;;;;5043296;28;20035;-73
2021/04/03 10:44:29;;;;;;;2.08;0.73;;;16.10;99.90;;;;;;5044595;28;20030;-74
2021/04/03 10:46:56;;;;;;;3.95;1.00;;;16.00;96.50;;;;;;5043197;28;20034;-74
2021/04/03 10:49:22;;;;;;;0.98;0.65;;;15.80;96.40;;;;;;5044661;28;20029;-72
2021/04/03 10:51:48;;;;;;;1.23;0.60;;;15.70;97.50;;;;;;5044616;28;20030;-73
2021/04/03 10:54:17;;;;;;;2.03;0.70;;;15.40;98.20;;;;;;5044356;28;20045;-72
2021/04/03 10:56:42;;;;;;;1.23;0.30;;;15.30;96.70;;;;;;5046418;28;20474;-72
2021/04/03 10:59:08;;;;;;;1.55;0.47;;;15.20;95.90;;;;;;5052613;28;20060;-75
2021/04/03 11:01:34;;;;;;;2.05;0.68;;;15.00;97.10;;;;;;5052433;28;20036;-74
2021/04/03 11:04:00;;;;;;;2.38;0.50;;;15.00;97.50;;;;;;5060697;28;20029;-74
2021/04/03 11:06:26;;;;;;;3.33;0.70;;;15.30;99.50;;;;;;5044691;28;20095;-74
2021/04/03 11:08:51;;;;;;;1.70;0.60;;;15.70;98.10;;;;;;5062061;28;20393;-73
2021/04/03 11:11:17;;;;;;;0.85;0.50;;;15.70;94.60;;;;;;5063036;28;20037;-74
2021/04/03 11:13:42;;;;;;;4.88;1.17;;;15.90;95.10;;;;;;5064326;28;20032;-73
2021/04/03 11:16:08;;;;;;;1.40;0.73;;;15.90;94.10;;;;;;5064242;28;20027;-73
2021/04/03 11:18:34;;;;;;;1.20;0.77;;;15.90;95.50;;;;;;5062793;28;20090;-75
2021/04/03 11:21:00;;;;;;;1.75;0.70;;;16.00;95.10;;;;;;5062981;28;20040;-75
2021/04/03 11:23:30;;;;;;;0.95;0.47;;;16.10;92.20;;;;;;5064326;28;20040;-74
2021/04/03 11:25:57;;;;;;;1.23;0.50;;;15.80;91.60;;;;;;5064092;28;20029;-75
2021/04/03 11:28:26;;;;;;;2.15;0.68;;;15.90;93.60;;;;;;5064423;28;20009;-75
2021/04/03 11:30:52;;;;;;;7.00;1.02;;;16.00;92.70;;;;;;5067169;28;20033;-74
2021/04/03 11:33:18;;;;;;;1.55;0.57;;;16.00;93.60;;;;;;5068176;28;20025;-73
2021/04/03 11:35:43;;;;;;;2.45;0.77;;;16.10;92.70;;;;;;5067798;28;20040;-76
2021/04/03 11:38:09;;;;;;;2.22;0.70;;;16.00;93.20;;;;;;5068066;28;20021;-76
2021/04/03 11:40:35;;;;;;;0.85;0.50;;;16.20;93.70;;;;;;5065960;28;20029;-75
2021/04/03 11:43:01;;;;;;;1.10;0.50;;;16.30;91.80;;;;;;5068315;28;20462;-76
2021/04/03 11:45:26;;;;;;;0.77;0.47;;;16.20;92.00;;;;;;5049160;28;20052;-75
2021/04/03 11:47:53;;;;;;;1.00;0.30;;;16.00;91.10;;;;;;5054500;28;20386;-77
2021/04/03 11:50:20;;;;;;;10.70;1.25;;;15.80;89.40;;;;;;5067859;28;20032;-73
2021/04/03 11:52:46;;;;;;;2.22;0.65;;;15.70;92.60;;;;;;5067885;28;20543;-73
2021/04/03 11:55:15;;;;;;;7.53;1.10;;;16.00;92.90;;;;;;5067789;28;20033;-73
2021/04/03 11:57:40;;;;;;;1.63;0.73;;;16.10;92.70;;;;;;5067681;28;20108;-73
2021/04/03 12:00:09;;;;;;;2.40;0.70;;;16.30;93.00;;;;;;5066143;28;20025;-73
2021/04/03 12:02:36;;;;;;;6.43;0.85;;;16.70;94.00;;;;;;5055304;28;20045;-73
2021/04/03 12:05:03;;;;;;;2.17;0.85;;;17.00;93.00;;;;;;5045994;28;20101;-74
2021/04/03 12:07:29;;;;;;;6.20;1.33;;;17.10;91.40;;;;;;5047800;28;20040;-74
2021/04/03 12:09:55;;;;;;;5.53;1.40;;;16.90;93.40;;;;;;5046350;28;20025;-74
2021/04/03 12:12:21;;;;;;;2.78;1.33;;;16.40;92.80;;;;;;5047491;28;20044;-71
2021/04/03 12:14:46;;;;;;;6.40;1.13;;;16.30;93.70;;;;;;5045812;28;20030;-72
2021/04/03 12:17:12;;;;;;;4.30;1.10;;;16.00;94.90;;;;;;5045097;28;20060;-72
2021/04/03 12:19:37;;;;;;;2.80;1.27;;;16.20;95.20;;;;;;5047109;28;20029;-71
2021/04/03 12:22:03;;;;;;;1.52;0.88;;;16.40;94.60;;;;;;5045910;28;20051;-73
2021/04/03 12:24:30;;;;;;;7.40;1.42;;;16.60;94.80;;;;;;5047275;28;20022;-74
2021/04/03 12:27:00;;;;;;;2.33;1.38;;;16.60;93.40;;;;;;5047233;28;20051;-73
2021/04/03 12:29:26;;;;;;;2.80;1.20;;;16.40;94.20;;;;;;5047152;28;20044;-74
2021/04/03 12:31:52;;;;;;;3.88;1.08;;;16.40;94.50;;;;;;5057804;28;20028;-72
2021/04/03 12:34:19;;;;;;;3.05;1.23;;;16.60;94.40;;;;;;5065410;28;20457;-74
2021/04/03 12:36:45;;;;;;;6.35;1.63;;;16.70;94.90;;;;;;5066883;28;20595;-73
2021/04/03 12:39:10;;;;;;;6.47;1.38;;;16.80;95.10;;;;;;5066695;28;20540;-72
2021/04/03 12:41:36;;;;;;;8.00;1.42;;;16.50;94.60;;;;;;5065481;28;20085;-72
2021/04/03 12:44:02;;;;;;;9.52;1.50;;;16.50;95.30;;;;;;5064621;28;20036;-74
2021/04/03 12:46:27;;;;;;;2.53;1.10;;;16.40;95.40;;;;;;5066582;28;20041;-75
2021/04/03 12:48:54;;;;;;;1.13;0.68;;;16.50;94.00;;;;;;5066227;28;20025;-73
2021/04/03 12:51:20;;;;;;;5.07;1.20;;;16.50;95.00;;;;;;5066302;28;20029;-72
2021/04/03 12:53:45;;;;;;;2.92;1.60;;;16.60;95.60;;;;;;5066492;28;20466;-72
2021/04/03 12:56:11;;;;;;;5.32;1.70;;;16.80;95.60;;;;;;5065270;28;20029;-72